sensor_id;sensor_type;location;lat;lon;timestamp;pressure;altitude;pressure_sealevel;temperature;humidity
53550;BME280;67273;52.914;-0.982;2023-05-20T00:00:06;102664.69;;;20.30;51.79
53550;BME280;67273;52.914;-0.982;2023-05-20T00:02:32;102659.22;;;20.30;51.78
53550;BME280;67273;52.914;-0.982;2023-05-20T00:05:00;102667.66;;;20.29;51.97
53550;BME280;67273;52.914;-0.982;2023-05-20T00:07:25;102659.47;;;20.29;51.73
53550;BME280;67273;52.914;-0.982;2023-05-20T00:09:52;102664.06;;;20.28;52.00
53550;BME280;67273;52.914;-0.982;2023-05-20T00:12:17;102665.13;;;20.27;51.79
53550;BME280;67273;52.914;-0.982;2023-05-20T00:14:43;102676.03;;;20.27;51.75
53550;BME280;67273;52.914;-0.982;2023-05-20T00:17:09;102673.50;;;20.26;51.76
53550;BME280;67273;52.914;-0.982;2023-05-20T00:19:35;102670.78;;;20.26;51.72
53550;BME280;67273;52.914;-0.982;2023-05-20T00:22:02;102670.97;;;20.24;51.85
53550;BME280;67273;52.914;-0.982;2023-05-20T00:24:28;102670.97;;;20.24;51.71
53550;BME280;67273;52.914;-0.982;2023-05-20T00:26:53;102661.94;;;20.24;51.77
53550;BME280;67273;52.914;-0.982;2023-05-20T00:29:20;102667.59;;;20.22;51.73
53550;BME280;67273;52.914;-0.982;2023-05-20T00:31:47;102662.16;;;20.22;51.91
53550;BME280;67273;52.914;-0.982;2023-05-20T00:34:13;102668.63;;;20.21;51.66
53550;BME280;67273;52.914;-0.982;2023-05-20T00:36:39;102666.97;;;20.20;51.72
53550;BME280;67273;52.914;-0.982;2023-05-20T00:39:06;102668.81;;;20.20;51.77
53550;BME280;67273;52.914;-0.982;2023-05-20T00:41:32;102670.72;;;20.19;51.73
53550;BME280;67273;52.914;-0.982;2023-05-20T00:43:58;102664.22;;;20.20;51.75
53550;BME280;67273;52.914;-0.982;2023-05-20T00:46:25;102666.31;;;20.18;51.64
53550;BME280;67273;52.914;-0.982;2023-05-20T00:48:51;102663.78;;;20.17;51.61
53550;BME280;67273;52.914;-0.982;2023-05-20T00:51:17;102671.13;;;20.16;51.65
53550;BME280;67273;52.914;-0.982;2023-05-20T00:53:44;102663.78;;;20.17;51.54
53550;BME280;67273;52.914;-0.982;2023-05-20T00:56:12;102660.19;;;20.16;51.63
53550;BME280;67273;52.914;-0.982;2023-05-20T00:58:38;102665.84;;;20.14;51.64
53550;BME280;67273;52.914;-0.982;2023-05-20T01:01:04;102666.72;;;20.15;51.54
53550;BME280;67273;52.914;-0.982;2023-05-20T01:03:31;102668.81;;;20.13;51.61
53550;BME280;67273;52.914;-0.982;2023-05-20T01:05:57;102669.66;;;20.13;51.67
53550;BME280;67273;52.914;-0.982;2023-05-20T01:08:24;102662.47;;;20.12;51.46
53550;BME280;67273;52.914;-0.982;2023-05-20T01:10:53;102669.00;;;20.11;51.58
53550;BME280;67273;52.914;-0.982;2023-05-20T01:13:26;102659.94;;;20.11;51.62
53550;BME280;67273;52.914;-0.982;2023-05-20T01:15:53;102659.94;;;20.11;51.62
53550;BME280;67273;52.914;-0.982;2023-05-20T01:18:22;102659.13;;;20.10;51.53
53550;BME280;67273;52.914;-0.982;2023-05-20T01:20:52;102653.84;;;20.09;51.63
53550;BME280;67273;52.914;-0.982;2023-05-20T01:23:21;102655.56;;;20.10;51.46
53550;BME280;67273;52.914;-0.982;2023-05-20T01:25:47;102655.75;;;20.08;51.52
53550;BME280;67273;52.914;-0.982;2023-05-20T01:28:13;102653.22;;;20.07;51.46
53550;BME280;67273;52.914;-0.982;2023-05-20T01:30:46;102648.59;;;20.07;51.53
53550;BME280;67273;52.914;-0.982;2023-05-20T01:33:17;102643.38;;;20.06;51.48
53550;BME280;67273;52.914;-0.982;2023-05-20T01:35:47;102644.41;;;20.05;51.41
53550;BME280;67273;52.914;-0.982;2023-05-20T01:38:18;102644.41;;;20.05;51.60
53550;BME280;67273;52.914;-0.982;2023-05-20T01:40:46;102648.16;;;20.04;51.46
53550;BME280;67273;52.914;-0.982;2023-05-20T01:43:13;102650.88;;;20.04;51.42
53550;BME280;67273;52.914;-0.982;2023-05-20T01:45:40;102654.47;;;20.04;51.45
53550;BME280;67273;52.914;-0.982;2023-05-20T01:48:08;102655.69;;;20.02;51.37
53550;BME280;67273;52.914;-0.982;2023-05-20T01:50:36;102653.84;;;20.02;51.23
53550;BME280;67273;52.914;-0.982;2023-05-20T01:53:03;102656.56;;;20.02;51.41
53550;BME280;67273;52.914;-0.982;2023-05-20T01:55:29;102654.03;;;20.01;51.58
53550;BME280;67273;52.914;-0.982;2023-05-20T01:57:57;102652.34;;;20.00;51.35
53550;BME280;67273;52.914;-0.982;2023-05-20T02:00:23;102652.34;;;20.00;51.51
53550;BME280;67273;52.914;-0.982;2023-05-20T02:02:48;102651.50;;;19.99;51.46
53550;BME280;67273;52.914;-0.982;2023-05-20T02:05:15;102647.94;;;19.99;51.42
53550;BME280;67273;52.914;-0.982;2023-05-20T02:07:42;102647.06;;;19.98;51.27
53550;BME280;67273;52.914;-0.982;2023-05-20T02:10:08;102644.53;;;19.97;51.48
53550;BME280;67273;52.914;-0.982;2023-05-20T02:12:35;102646.44;;;19.96;51.46
53550;BME280;67273;52.914;-0.982;2023-05-20T02:15:03;102647.28;;;19.97;51.18
53550;BME280;67273;52.914;-0.982;2023-05-20T02:17:29;102644.78;;;19.95;51.41
53550;BME280;67273;52.914;-0.982;2023-05-20T02:19:56;102646.63;;;19.94;51.19
53550;BME280;67273;52.914;-0.982;2023-05-20T02:22:22;102642.25;;;19.93;51.22
53550;BME280;67273;52.914;-0.982;2023-05-20T02:24:47;102644.97;;;19.93;51.21
53550;BME280;67273;52.914;-0.982;2023-05-20T02:27:14;102632.34;;;19.92;51.29
53550;BME280;67273;52.914;-0.982;2023-05-20T02:29:42;102629.63;;;19.92;51.25
53550;BME280;67273;52.914;-0.982;2023-05-20T02:32:09;102635.09;;;19.92;51.31
53550;BME280;67273;52.914;-0.982;2023-05-20T02:34:37;102630.88;;;19.90;51.14
53550;BME280;67273;52.914;-0.982;2023-05-20T02:37:05;102624.56;;;19.89;51.28
53550;BME280;67273;52.914;-0.982;2023-05-20T02:39:36;102628.16;;;19.90;51.08
53550;BME280;67273;52.914;-0.982;2023-05-20T02:42:03;102623.72;;;19.89;51.11
53550;BME280;67273;52.914;-0.982;2023-05-20T02:44:31;102628.34;;;19.88;51.23
53550;BME280;67273;52.914;-0.982;2023-05-20T02:47:00;102626.66;;;19.87;51.22
53550;BME280;67273;52.914;-0.982;2023-05-20T02:49:30;102629.38;;;19.87;51.30
53550;BME280;67273;52.914;-0.982;2023-05-20T02:51:59;102623.09;;;19.87;51.28
53550;BME280;67273;52.914;-0.982;2023-05-20T02:54:29;102623.28;;;19.85;51.12
53550;BME280;67273;52.914;-0.982;2023-05-20T02:56:58;102635.03;;;19.86;51.25
53550;BME280;67273;52.914;-0.982;2023-05-20T02:59:25;102628.75;;;19.85;51.06
53550;BME280;67273;52.914;-0.982;2023-05-20T03:01:55;102627.91;;;19.85;51.06
53550;BME280;67273;52.914;-0.982;2023-05-20T03:04:24;102632.50;;;19.84;51.13
53550;BME280;67273;52.914;-0.982;2023-05-20T03:06:55;102637.31;;;19.82;51.09
53550;BME280;67273;52.914;-0.982;2023-05-20T03:09:24;102637.31;;;19.82;51.15
53550;BME280;67273;52.914;-0.982;2023-05-20T03:11:52;102640.03;;;19.82;51.07
53550;BME280;67273;52.914;-0.982;2023-05-20T03:14:20;102635.66;;;19.81;51.08
53550;BME280;67273;52.914;-0.982;2023-05-20T03:16:48;102629.31;;;19.81;51.15
53550;BME280;67273;52.914;-0.982;2023-05-20T03:19:14;102631.22;;;19.80;50.97
53550;BME280;67273;52.914;-0.982;2023-05-20T03:21:40;102624.09;;;19.79;51.08
53550;BME280;67273;52.914;-0.982;2023-05-20T03:24:09;102624.09;;;19.79;51.23
53550;BME280;67273;52.914;-0.982;2023-05-20T03:26:36;102616.13;;;19.78;51.11
53550;BME280;67273;52.914;-0.982;2023-05-20T03:29:06;102616.94;;;19.78;51.06
53550;BME280;67273;52.914;-0.982;2023-05-20T03:31:32;102613.56;;;19.76;51.07
53550;BME280;67273;52.914;-0.982;2023-05-20T03:33:58;102614.41;;;19.77;51.11
53550;BME280;67273;52.914;-0.982;2023-05-20T03:36:24;102607.28;;;19.75;50.93
53550;BME280;67273;52.914;-0.982;2023-05-20T03:38:51;102610.84;;;19.76;50.84
53550;BME280;67273;52.914;-0.982;2023-05-20T03:41:18;102606.44;;;19.75;51.00
53550;BME280;67273;52.914;-0.982;2023-05-20T03:43:44;102617.34;;;19.75;50.93
53550;BME280;67273;52.914;-0.982;2023-05-20T03:46:10;102606.44;;;19.75;50.90
53550;BME280;67273;52.914;-0.982;2023-05-20T03:48:36;102610.22;;;19.74;51.02
53550;BME280;67273;52.914;-0.982;2023-05-20T03:51:03;102604.75;;;19.74;50.88
53550;BME280;67273;52.914;-0.982;2023-05-20T03:53:29;102607.66;;;19.72;50.91
53550;BME280;67273;52.914;-0.982;2023-05-20T03:55:55;102612.28;;;19.72;51.08
53550;BME280;67273;52.914;-0.982;2023-05-20T03:58:29;102606.81;;;19.72;50.98
53550;BME280;67273;52.914;-0.982;2023-05-20T04:00:56;102616.03;;;19.71;50.99
53550;BME280;67273;52.914;-0.982;2023-05-20T04:03:23;102616.03;;;19.71;51.02
53550;BME280;67273;52.914;-0.982;2023-05-20T04:05:49;102607.00;;;19.70;50.88
53550;BME280;67273;52.914;-0.982;2023-05-20T04:08:19;102607.19;;;19.69;50.96
53550;BME280;67273;52.914;-0.982;2023-05-20T04:10:46;102615.38;;;19.69;50.94
53550;BME280;67273;52.914;-0.982;2023-05-20T04:13:12;102617.25;;;19.68;50.88
53550;BME280;67273;52.914;-0.982;2023-05-20T04:15:40;102617.25;;;19.68;50.96
53550;BME280;67273;52.914;-0.982;2023-05-20T04:18:06;102612.03;;;19.67;50.88
53550;BME280;67273;52.914;-0.982;2023-05-20T04:20:34;102603.84;;;19.67;51.03
53550;BME280;67273;52.914;-0.982;2023-05-20T04:23:01;102609.50;;;19.65;50.99
53550;BME280;67273;52.914;-0.982;2023-05-20T04:25:27;102618.50;;;19.66;50.98
53550;BME280;67273;52.914;-0.982;2023-05-20T04:27:53;102615.78;;;19.66;50.93
53550;BME280;67273;52.914;-0.982;2023-05-20T04:30:19;102619.53;;;19.65;50.89
53550;BME280;67273;52.914;-0.982;2023-05-20T04:32:48;102627.72;;;19.65;50.95
53550;BME280;67273;52.914;-0.982;2023-05-20T04:35:15;102610.72;;;19.63;50.91
53550;BME280;67273;52.914;-0.982;2023-05-20T04:37:45;102620.59;;;19.64;50.92
53550;BME280;67273;52.914;-0.982;2023-05-20T04:40:15;102627.06;;;19.63;50.84
53550;BME280;67273;52.914;-0.982;2023-05-20T04:42:41;102618.06;;;19.62;50.79
53550;BME280;67273;52.914;-0.982;2023-05-20T04:45:11;102617.22;;;19.62;50.90
53550;BME280;67273;52.914;-0.982;2023-05-20T04:47:41;102613.63;;;19.61;50.86
53550;BME280;67273;52.914;-0.982;2023-05-20T04:50:11;102616.34;;;19.61;50.84
53550;BME280;67273;52.914;-0.982;2023-05-20T04:52:40;102609.22;;;19.60;50.93
53550;BME280;67273;52.914;-0.982;2023-05-20T04:55:08;102612.16;;;19.59;50.78
53550;BME280;67273;52.914;-0.982;2023-05-20T04:57:35;102608.41;;;19.60;50.85
53550;BME280;67273;52.914;-0.982;2023-05-20T05:00:04;102612.16;;;19.59;50.73
53550;BME280;67273;52.914;-0.982;2023-05-20T05:02:34;102605.00;;;19.57;50.84
53550;BME280;67273;52.914;-0.982;2023-05-20T05:05:03;102606.91;;;19.57;50.64
53550;BME280;67273;52.914;-0.982;2023-05-20T05:07:33;102607.97;;;19.56;50.67
53550;BME280;67273;52.914;-0.982;2023-05-20T05:10:01;102613.41;;;19.56;50.73
53550;BME280;67273;52.914;-0.982;2023-05-20T05:12:30;102608.78;;;19.56;50.71
53550;BME280;67273;52.914;-0.982;2023-05-20T05:15:00;102615.28;;;19.55;50.58
53550;BME280;67273;52.914;-0.982;2023-05-20T05:17:29;102621.78;;;19.54;50.74
53550;BME280;67273;52.914;-0.982;2023-05-20T05:19:58;102613.59;;;19.54;50.76
53550;BME280;67273;52.914;-0.982;2023-05-20T05:22:33;102615.47;;;19.54;50.79
53550;BME280;67273;52.914;-0.982;2023-05-20T05:25:02;102616.31;;;19.54;50.71
53550;BME280;67273;52.914;-0.982;2023-05-20T05:27:28;102616.53;;;19.53;50.71
53550;BME280;67273;52.914;-0.982;2023-05-20T05:29:53;102616.53;;;19.53;50.72
53550;BME280;67273;52.914;-0.982;2023-05-20T05:32:19;102618.41;;;19.52;50.63
53550;BME280;67273;52.914;-0.982;2023-05-20T05:34:45;102612.09;;;19.52;50.75
53550;BME280;67273;52.914;-0.982;2023-05-20T05:37:11;102611.25;;;19.51;50.59
53550;BME280;67273;52.914;-0.982;2023-05-20T05:39:39;102617.75;;;19.50;50.65
53550;BME280;67273;52.914;-0.982;2023-05-20T05:42:05;102616.72;;;19.51;50.59
53550;BME280;67273;52.914;-0.982;2023-05-20T05:44:32;102615.00;;;19.50;50.53
53550;BME280;67273;52.914;-0.982;2023-05-20T05:46:58;102604.09;;;19.50;50.61
53550;BME280;67273;52.914;-0.982;2023-05-20T05:49:24;102608.72;;;19.50;50.64
53550;BME280;67273;52.914;-0.982;2023-05-20T05:51:50;102607.91;;;19.49;50.65
53550;BME280;67273;52.914;-0.982;2023-05-20T05:54:16;102605.16;;;19.49;50.62
53550;BME280;67273;52.914;-0.982;2023-05-20T05:56:43;102607.03;;;19.49;50.72
53550;BME280;67273;52.914;-0.982;2023-05-20T05:59:09;102609.75;;;19.49;50.57
53550;BME280;67273;52.914;-0.982;2023-05-20T06:01:34;102621.53;;;19.49;50.57
53550;BME280;67273;52.914;-0.982;2023-05-20T06:04:01;102615.22;;;19.49;50.57
53550;BME280;67273;52.914;-0.982;2023-05-20T06:06:27;102622.56;;;19.48;50.49
53550;BME280;67273;52.914;-0.982;2023-05-20T06:08:53;102619.00;;;19.48;50.64
53550;BME280;67273;52.914;-0.982;2023-05-20T06:11:20;102614.38;;;19.48;50.49
53550;BME280;67273;52.914;-0.982;2023-05-20T06:13:47;102615.44;;;19.47;50.56
53550;BME280;67273;52.914;-0.982;2023-05-20T06:16:13;102612.72;;;19.47;50.61
53550;BME280;67273;52.914;-0.982;2023-05-20T06:18:39;102612.72;;;19.47;50.54
53550;BME280;67273;52.914;-0.982;2023-05-20T06:21:05;102614.56;;;19.47;50.67
53550;BME280;67273;52.914;-0.982;2023-05-20T06:23:31;102610.81;;;19.48;50.62
53550;BME280;67273;52.914;-0.982;2023-05-20T06:25:59;102614.56;;;19.47;50.57
53550;BME280;67273;52.914;-0.982;2023-05-20T06:28:26;102606.38;;;19.47;50.82
53550;BME280;67273;52.914;-0.982;2023-05-20T06:30:54;102613.72;;;19.46;50.74
53550;BME280;67273;52.914;-0.982;2023-05-20T06:33:22;102611.84;;;19.47;50.42
53550;BME280;67273;52.914;-0.982;2023-05-20T06:35:50;102613.72;;;19.46;50.62
53550;BME280;67273;52.914;-0.982;2023-05-20T06:38:16;102613.72;;;19.46;50.50
53550;BME280;67273;52.914;-0.982;2023-05-20T06:40:42;102619.19;;;19.46;50.64
53550;BME280;67273;52.914;-0.982;2023-05-20T06:43:08;102612.91;;;19.46;50.51
53550;BME280;67273;52.914;-0.982;2023-05-20T06:46:02;102607.44;;;19.46;50.52
53550;BME280;67273;52.914;-0.982;2023-05-20T06:48:43;102604.72;;;19.46;50.73
53550;BME280;67273;52.914;-0.982;2023-05-20T06:51:10;102604.72;;;19.46;50.44
53550;BME280;67273;52.914;-0.982;2023-05-20T06:53:36;102599.28;;;19.46;50.42
53550;BME280;67273;52.914;-0.982;2023-05-20T06:56:03;102601.13;;;19.45;50.46
53550;BME280;67273;52.914;-0.982;2023-05-20T06:58:31;102598.41;;;19.45;50.56
53550;BME280;67273;52.914;-0.982;2023-05-20T07:00:57;102599.06;;;19.47;50.64
53550;BME280;67273;52.914;-0.982;2023-05-20T07:03:25;102601.13;;;19.45;51.19
53550;BME280;67273;52.914;-0.982;2023-05-20T07:05:51;102590.22;;;19.45;51.04
53550;BME280;67273;52.914;-0.982;2023-05-20T07:08:18;102598.41;;;19.45;50.76
53550;BME280;67273;52.914;-0.982;2023-05-20T07:10:43;102594.00;;;19.44;50.83
53550;BME280;67273;52.914;-0.982;2023-05-20T07:13:10;102594.84;;;19.45;50.70
53550;BME280;67273;52.914;-0.982;2023-05-20T07:15:36;102595.69;;;19.45;50.71
53550;BME280;67273;52.914;-0.982;2023-05-20T07:18:01;102596.47;;;19.39;50.80
53550;BME280;67273;52.914;-0.982;2023-05-20T07:20:28;102595.22;;;19.42;50.82
53550;BME280;67273;52.914;-0.982;2023-05-20T07:22:56;102592.31;;;19.43;50.63
53550;BME280;67273;52.914;-0.982;2023-05-20T07:25:38;102589.38;;;19.45;50.51
53550;BME280;67273;52.914;-0.982;2023-05-20T07:28:03;102587.50;;;19.45;50.44
53550;BME280;67273;52.914;-0.982;2023-05-20T07:30:30;102584.78;;;19.45;50.43
53550;BME280;67273;52.914;-0.982;2023-05-20T07:33:14;102589.19;;;19.46;50.43
53550;BME280;67273;52.914;-0.982;2023-05-20T07:35:41;102586.47;;;19.46;50.33
53550;BME280;67273;52.914;-0.982;2023-05-20T07:38:07;102588.16;;;19.47;50.39
53550;BME280;67273;52.914;-0.982;2023-05-20T07:40:33;102591.72;;;19.48;50.41
53550;BME280;67273;52.914;-0.982;2023-05-20T07:43:01;102596.13;;;19.49;50.41
53550;BME280;67273;52.914;-0.982;2023-05-20T07:45:26;102599.72;;;19.49;50.35
53550;BME280;67273;52.914;-0.982;2023-05-20T07:47:52;102596.13;;;19.49;50.41
53550;BME280;67273;52.914;-0.982;2023-05-20T07:50:18;102590.66;;;19.49;50.37
53550;BME280;67273;52.914;-0.982;2023-05-20T07:52:46;102593.63;;;19.47;50.32
53550;BME280;67273;52.914;-0.982;2023-05-20T07:55:12;102593.63;;;19.47;50.27
53550;BME280;67273;52.914;-0.982;2023-05-20T07:57:38;102595.47;;;19.47;50.41
53550;BME280;67273;52.914;-0.982;2023-05-20T08:00:05;102600.75;;;19.48;50.48
53550;BME280;67273;52.914;-0.982;2023-05-20T08:02:31;102589.00;;;19.48;50.37
53550;BME280;67273;52.914;-0.982;2023-05-20T08:04:58;102588.16;;;19.47;50.32
53550;BME280;67273;52.914;-0.982;2023-05-20T08:07:24;102589.84;;;19.48;50.25
53550;BME280;67273;52.914;-0.982;2023-05-20T08:09:53;102586.09;;;19.49;50.33
53550;BME280;67273;52.914;-0.982;2023-05-20T08:12:20;102581.66;;;19.48;50.30
53550;BME280;67273;52.914;-0.982;2023-05-20T08:14:46;102573.47;;;19.48;50.13
53550;BME280;67273;52.914;-0.982;2023-05-20T08:17:12;102583.56;;;19.48;50.36
53550;BME280;67273;52.914;-0.982;2023-05-20T08:19:38;102581.66;;;19.48;50.18
53550;BME280;67273;52.914;-0.982;2023-05-20T08:22:04;102582.72;;;19.47;50.30
53550;BME280;67273;52.914;-0.982;2023-05-20T08:24:31;102564.66;;;19.46;50.36
53550;BME280;67273;52.914;-0.982;2023-05-20T08:26:58;102582.72;;;19.47;50.38
53550;BME280;67273;52.914;-0.982;2023-05-20T08:29:25;102578.28;;;19.46;50.37
53550;BME280;67273;52.914;-0.982;2023-05-20T08:31:51;102567.59;;;19.45;50.38
53550;BME280;67273;52.914;-0.982;2023-05-20T08:34:20;102573.88;;;19.45;50.31
53550;BME280;67273;52.914;-0.982;2023-05-20T08:36:45;102580.19;;;19.46;50.37
53550;BME280;67273;52.914;-0.982;2023-05-20T08:39:11;102570.13;;;19.46;50.27
53550;BME280;67273;52.914;-0.982;2023-05-20T08:41:38;102567.59;;;19.45;50.39
53550;BME280;67273;52.914;-0.982;2023-05-20T08:44:07;102579.31;;;19.45;50.33
53550;BME280;67273;52.914;-0.982;2023-05-20T08:46:35;102567.78;;;19.43;50.46
53550;BME280;67273;52.914;-0.982;2023-05-20T08:49:03;102574.09;;;19.44;50.32
53550;BME280;67273;52.914;-0.982;2023-05-20T08:51:31;102562.13;;;19.45;50.62
53550;BME280;67273;52.914;-0.982;2023-05-20T08:53:58;102562.13;;;19.45;50.32
53550;BME280;67273;52.914;-0.982;2023-05-20T08:56:24;102564.84;;;19.45;50.26
53550;BME280;67273;52.914;-0.982;2023-05-20T08:58:51;102569.47;;;19.44;50.35
53550;BME280;67273;52.914;-0.982;2023-05-20T09:01:22;102563.19;;;19.44;50.28
53550;BME280;67273;52.914;-0.982;2023-05-20T09:03:48;102561.31;;;19.44;50.35
53550;BME280;67273;52.914;-0.982;2023-05-20T09:06:15;102563.84;;;19.46;50.21
53550;BME280;67273;52.914;-0.982;2023-05-20T09:08:41;102561.31;;;19.44;50.34
53550;BME280;67273;52.914;-0.982;2023-05-20T09:11:09;102555.84;;;19.44;50.31
53550;BME280;67273;52.914;-0.982;2023-05-20T09:13:35;102564.03;;;19.44;50.32
53550;BME280;67273;52.914;-0.982;2023-05-20T09:16:01;102560.47;;;19.44;50.38
53550;BME280;67273;52.914;-0.982;2023-05-20T09:18:29;102554.16;;;19.43;50.29
53550;BME280;67273;52.914;-0.982;2023-05-20T09:20:55;102555.84;;;19.44;50.22
53550;BME280;67273;52.914;-0.982;2023-05-20T09:23:21;102552.28;;;19.44;50.29
53550;BME280;67273;52.914;-0.982;2023-05-20T09:25:48;102551.22;;;19.45;50.25
53550;BME280;67273;52.914;-0.982;2023-05-20T09:28:14;102553.13;;;19.44;50.26
53550;BME280;67273;52.914;-0.982;2023-05-20T09:30:39;102549.34;;;19.45;50.29
53550;BME280;67273;52.914;-0.982;2023-05-20T09:33:05;102547.66;;;19.44;50.40
53550;BME280;67273;52.914;-0.982;2023-05-20T09:35:35;102541.16;;;19.45;50.21
53550;BME280;67273;52.914;-0.982;2023-05-20T09:38:05;102534.88;;;19.45;50.25
53550;BME280;67273;52.914;-0.982;2023-05-20T09:40:34;102535.72;;;19.45;50.25
53550;BME280;67273;52.914;-0.982;2023-05-20T09:43:02;102538.44;;;19.45;50.39
53550;BME280;67273;52.914;-0.982;2023-05-20T09:45:29;102524.81;;;19.45;50.31
53550;BME280;67273;52.914;-0.982;2023-05-20T09:47:55;102527.53;;;19.45;50.22
53550;BME280;67273;52.914;-0.982;2023-05-20T09:50:23;102524.81;;;19.45;50.28
53550;BME280;67273;52.914;-0.982;2023-05-20T09:52:51;102527.34;;;19.47;50.18
53550;BME280;67273;52.914;-0.982;2023-05-20T09:55:19;102525.66;;;19.46;50.10
53550;BME280;67273;52.914;-0.982;2023-05-20T09:57:45;102519.16;;;19.47;50.12
53550;BME280;67273;52.914;-0.982;2023-05-20T10:00:12;102515.59;;;19.46;50.26
53550;BME280;67273;52.914;-0.982;2023-05-20T10:02:41;102514.75;;;19.46;50.28
53550;BME280;67273;52.914;-0.982;2023-05-20T10:05:14;102520.84;;;19.48;50.37
53550;BME280;67273;52.914;-0.982;2023-05-20T10:08:15;102512.69;;;19.48;50.19
53550;BME280;67273;52.914;-0.982;2023-05-20T10:10:57;102513.69;;;19.47;50.30
53550;BME280;67273;52.914;-0.982;2023-05-20T10:13:41;102507.22;;;19.48;50.13
53550;BME280;67273;52.914;-0.982;2023-05-20T10:16:19;102508.06;;;19.48;50.29
53550;BME280;67273;52.914;-0.982;2023-05-20T10:18:59;102501.78;;;19.48;50.24
53550;BME280;67273;52.914;-0.982;2023-05-20T10:21:28;102502.59;;;19.48;50.17
53550;BME280;67273;52.914;-0.982;2023-05-20T10:24:04;102499.88;;;19.48;50.15
53550;BME280;67273;52.914;-0.982;2023-05-20T10:26:34;102497.78;;;19.50;50.22
53550;BME280;67273;52.914;-0.982;2023-05-20T10:29:00;102495.06;;;19.50;50.05
53550;BME280;67273;52.914;-0.982;2023-05-20T10:31:25;102497.78;;;19.50;50.30
53550;BME280;67273;52.914;-0.982;2023-05-20T10:33:53;102489.59;;;19.50;50.20
53550;BME280;67273;52.914;-0.982;2023-05-20T10:36:22;102494.88;;;19.52;50.18
53550;BME280;67273;52.914;-0.982;2023-05-20T10:38:52;102486.69;;;19.52;50.10
53550;BME280;67273;52.914;-0.982;2023-05-20T10:41:22;102491.13;;;19.53;50.20
53550;BME280;67273;52.914;-0.982;2023-05-20T10:43:58;102479.16;;;19.54;50.29
53550;BME280;67273;52.914;-0.982;2023-05-20T10:46:24;102484.59;;;19.54;50.15
53550;BME280;67273;52.914;-0.982;2023-05-20T10:48:50;102471.81;;;19.54;50.17
53550;BME280;67273;52.914;-0.982;2023-05-20T10:51:16;102474.56;;;19.54;50.20
53550;BME280;67273;52.914;-0.982;2023-05-20T10:53:44;102461.56;;;19.56;50.03
53550;BME280;67273;52.914;-0.982;2023-05-20T10:56:16;102453.38;;;19.56;50.09
53550;BME280;67273;52.914;-0.982;2023-05-20T10:58:44;102458.84;;;19.56;50.18
53550;BME280;67273;52.914;-0.982;2023-05-20T11:01:10;102455.91;;;19.58;50.15
53550;BME280;67273;52.914;-0.982;2023-05-20T11:03:37;102447.72;;;19.58;50.18
53550;BME280;67273;52.914;-0.982;2023-05-20T11:06:10;102453.19;;;19.58;50.12
53550;BME280;67273;52.914;-0.982;2023-05-20T11:08:36;102443.09;;;19.59;50.05
53550;BME280;67273;52.914;-0.982;2023-05-20T11:11:02;102437.47;;;19.60;50.12
53550;BME280;67273;52.914;-0.982;2023-05-20T11:13:29;102446.47;;;19.61;50.06
53550;BME280;67273;52.914;-0.982;2023-05-20T11:15:57;102442.72;;;19.62;50.18
53550;BME280;67273;52.914;-0.982;2023-05-20T11:18:25;102433.47;;;19.63;50.09
53550;BME280;67273;52.914;-0.982;2023-05-20T11:20:54;102426.34;;;19.62;50.12
53550;BME280;67273;52.914;-0.982;2023-05-20T11:23:20;102426.34;;;19.62;50.17
53550;BME280;67273;52.914;-0.982;2023-05-20T11:25:48;102427.19;;;19.62;50.27
53550;BME280;67273;52.914;-0.982;2023-05-20T11:28:15;102422.56;;;19.63;50.05
53550;BME280;67273;52.914;-0.982;2023-05-20T11:30:41;102425.09;;;19.64;50.11
53550;BME280;67273;52.914;-0.982;2023-05-20T11:33:10;102429.72;;;19.64;49.99
53550;BME280;67273;52.914;-0.982;2023-05-20T11:35:43;102425.09;;;19.64;50.14
53550;BME280;67273;52.914;-0.982;2023-05-20T11:38:09;102420.28;;;19.66;50.15
53550;BME280;67273;52.914;-0.982;2023-05-20T11:40:35;102422.16;;;19.66;50.13
53550;BME280;67273;52.914;-0.982;2023-05-20T11:43:02;102423.00;;;19.66;50.06
53550;BME280;67273;52.914;-0.982;2023-05-20T11:45:38;102416.50;;;19.67;50.20
53550;BME280;67273;52.914;-0.982;2023-05-20T11:48:05;102417.34;;;19.68;50.12
53550;BME280;67273;52.914;-0.982;2023-05-20T11:50:35;102414.63;;;19.68;50.16
53550;BME280;67273;52.914;-0.982;2023-05-20T11:53:04;102411.91;;;19.68;50.10
53550;BME280;67273;52.914;-0.982;2023-05-20T11:55:30;102400.78;;;19.69;50.15
53550;BME280;67273;52.914;-0.982;2023-05-20T11:57:58;102402.69;;;19.69;50.07
53550;BME280;67273;52.914;-0.982;2023-05-20T12:00:24;102399.94;;;19.69;50.17
53550;BME280;67273;52.914;-0.982;2023-05-20T12:02:50;102399.94;;;19.69;50.23
53550;BME280;67273;52.914;-0.982;2023-05-20T12:05:16;102396.16;;;19.70;50.18
53550;BME280;67273;52.914;-0.982;2023-05-20T12:07:44;102397.03;;;19.70;50.14
53550;BME280;67273;52.914;-0.982;2023-05-20T12:10:10;102395.13;;;19.71;50.19
53550;BME280;67273;52.914;-0.982;2023-05-20T12:12:36;102396.16;;;19.70;50.17
53550;BME280;67273;52.914;-0.982;2023-05-20T12:15:01;102395.13;;;19.71;50.29
53550;BME280;67273;52.914;-0.982;2023-05-20T12:17:27;102392.41;;;19.71;50.18
53550;BME280;67273;52.914;-0.982;2023-05-20T12:19:53;102392.41;;;19.71;50.12
53550;BME280;67273;52.914;-0.982;2023-05-20T12:22:19;102386.13;;;19.70;50.14
53550;BME280;67273;52.914;-0.982;2023-05-20T12:24:46;102381.50;;;19.71;50.22
53550;BME280;67273;52.914;-0.982;2023-05-20T12:27:11;102382.31;;;19.71;50.19
53550;BME280;67273;52.914;-0.982;2023-05-20T12:29:37;102382.31;;;19.71;50.17
53550;BME280;67273;52.914;-0.982;2023-05-20T12:32:03;102371.41;;;19.71;50.22
53550;BME280;67273;52.914;-0.982;2023-05-20T12:34:29;102376.88;;;19.71;50.34
53550;BME280;67273;52.914;-0.982;2023-05-20T12:36:55;102372.28;;;19.72;50.23
53550;BME280;67273;52.914;-0.982;2023-05-20T12:39:21;102382.13;;;19.73;50.25
53550;BME280;67273;52.914;-0.982;2023-05-20T12:41:48;102384.84;;;19.73;50.39